Time;durP1;ratioP1;P1;durP2;ratioP2;P2;SDS_P1;SDS_P2;PMS_P1;PMS_P2;Temp;Humidity;BMP_temperature;BMP_pressure;BME280_temperature;BME280_humidity;BME280_pressure;Samples;Min_cycle;Max_cycle;Signal;HPM_P1;HPM_P2
2021/04/30 00:02:19;;;;;;;5.82;3.45;;;25.90;93.90;;;;;;5114207;28;20063;-50
2021/04/30 00:04:46;;;;;;;5.50;4.28;;;25.90;94.10;;;;;;5126425;28;20019;-53
2021/04/30 00:07:13;;;;;;;5.95;4.07;;;25.90;94.10;;;;;;5125591;28;20043;-50
2021/04/30 00:09:41;;;;;;;6.82;4.10;;;25.90;94.10;;;;;;5071913;28;20062;-53
2021/04/30 00:12:08;;;;;;;4.85;3.97;;;25.90;94.10;;;;;;5107653;27;20023;-52
2021/04/30 00:14:35;;;;;;;5.97;3.88;;;25.80;94.10;;;;;;5117383;27;20099;-56
2021/04/30 00:17:02;;;;;;;7.68;4.15;;;25.80;94.20;;;;;;5117108;27;20211;-47
2021/04/30 00:19:29;;;;;;;5.53;3.38;;;25.80;94.20;;;;;;5092025;28;20311;-53
2021/04/30 00:21:58;;;;;;;3.63;3.30;;;25.80;94.20;;;;;;5105833;28;20034;-50
2021/04/30 00:24:26;;;;;;;6.88;3.47;;;25.80;94.40;;;;;;5107781;28;20026;-51
2021/04/30 00:26:56;;;;;;;3.92;3.03;;;25.80;94.30;;;;;;5132879;27;20019;-55
2021/04/30 00:29:26;;;;;;;5.93;2.90;;;25.80;94.30;;;;;;5134992;27;20041;-48
2021/04/30 00:31:53;;;;;;;5.93;3.42;;;25.80;94.30;;;;;;5132818;27;20275;-55
2021/04/30 00:34:22;;;;;;;4.03;2.92;;;25.70;94.30;;;;;;5131685;27;20023;-55
2021/04/30 00:36:52;;;;;;;4.75;3.05;;;25.70;94.40;;;;;;5108277;28;20023;-53
2021/04/30 00:39:19;;;;;;;4.38;2.70;;;25.70;94.50;;;;;;5122535;28;20334;-49
2021/04/30 00:41:46;;;;;;;8.32;4.20;;;25.80;94.50;;;;;;5123870;28;20184;-51
2021/04/30 00:44:13;;;;;;;5.47;4.28;;;25.70;94.50;;;;;;5109144;28;20019;-49
2021/04/30 00:46:43;;;;;;;7.45;4.90;;;25.70;94.60;;;;;;5124502;28;20038;-58
2021/04/30 00:49:12;;;;;;;7.35;4.70;;;25.70;94.60;;;;;;5123360;28;20015;-53
2021/04/30 00:51:39;;;;;;;5.78;4.18;;;25.70;94.50;;;;;;5107272;28;20020;-50
2021/04/30 00:54:06;;;;;;;4.78;3.83;;;25.70;94.50;;;;;;5129236;27;20039;-55
2021/04/30 00:56:36;;;;;;;7.40;4.43;;;25.70;94.50;;;;;;5092961;27;20124;-53
2021/04/30 00:59:03;;;;;;;8.57;4.97;;;25.70;94.50;;;;;;5133555;27;20034;-54
2021/04/30 01:01:30;;;;;;;6.45;5.13;;;25.70;94.60;;;;;;5124858;28;20015;-52
2021/04/30 01:03:57;;;;;;;8.93;4.85;;;25.70;94.60;;;;;;5109277;27;20035;-49
2021/04/30 01:06:24;;;;;;;4.80;3.30;;;25.70;94.60;;;;;;5143934;27;20054;-54
2021/04/30 01:08:54;;;;;;;9.38;3.05;;;25.70;94.60;;;;;;5145648;27;20196;-52
2021/04/30 01:11:21;;;;;;;3.25;2.05;;;25.70;94.60;;;;;;5146087;27;20086;-50
2021/04/30 01:13:47;;;;;;;4.25;2.00;;;25.60;94.60;;;;;;5125828;28;20042;-51
2021/04/30 01:16:16;;;;;;;5.50;1.40;;;25.70;94.70;;;;;;5124783;28;20091;-50
2021/04/30 01:18:47;;;;;;;2.58;1.25;;;25.60;94.70;;;;;;5130240;27;20027;-50
2021/04/30 01:21:15;;;;;;;2.58;1.30;;;25.60;94.70;;;;;;5116281;27;20020;-47
2021/04/30 01:24:02;;;;;;;2.47;1.30;;;25.70;94.70;;;;;;5128099;27;20019;-49
2021/04/30 01:26:31;;;;;;;1.60;1.05;;;25.60;94.60;;;;;;5106223;28;20020;-52
2021/04/30 01:28:58;;;;;;;2.03;0.98;;;25.60;94.70;;;;;;5124310;28;20016;-51
2021/04/30 01:31:25;;;;;;;1.63;1.10;;;25.60;94.70;;;;;;5124493;28;20219;-53
2021/04/30 01:33:56;;;;;;;2.30;1.27;;;25.60;94.70;;;;;;5124676;28;20031;-54
2021/04/30 01:36:23;;;;;;;4.82;1.00;;;25.60;94.80;;;;;;5135040;27;20023;-48
2021/04/30 01:38:50;;;;;;;1.23;0.75;;;25.60;94.90;;;;;;5117115;27;20337;-51
2021/04/30 01:41:21;;;;;;;3.00;0.80;;;25.60;94.90;;;;;;5129963;27;20180;-49
2021/04/30 01:43:48;;;;;;;3.80;0.75;;;25.60;94.90;;;;;;5133838;27;20056;-48
2021/04/30 01:46:16;;;;;;;3.25;0.70;;;25.60;94.90;;;;;;5132868;27;20042;-48
2021/04/30 01:48:43;;;;;;;0.85;0.60;;;25.60;94.90;;;;;;5091461;28;20081;-54
2021/04/30 01:51:10;;;;;;;5.55;1.05;;;25.60;94.90;;;;;;5127188;28;20203;-50
2021/04/30 01:53:39;;;;;;;2.78;0.90;;;25.60;94.90;;;;;;5108829;28;20044;-51
2021/04/30 01:56:11;;;;;;;3.00;1.30;;;25.60;95.00;;;;;;5130154;27;20024;-48
2021/04/30 01:58:40;;;;;;;1.65;0.85;;;25.60;95.00;;;;;;5131374;27;20011;-52
2021/04/30 02:01:07;;;;;;;3.33;0.93;;;25.60;95.10;;;;;;5130688;28;20129;-47
2021/04/30 02:03:35;;;;;;;2.60;0.80;;;25.60;95.40;;;;;;5130840;27;20035;-49
2021/04/30 02:06:02;;;;;;;2.88;1.20;;;25.60;95.10;;;;;;5124831;28;20027;-56
2021/04/30 02:08:31;;;;;;;3.08;0.95;;;25.60;95.10;;;;;;5123088;28;20224;-57
2021/04/30 02:10:58;;;;;;;5.93;1.02;;;25.70;95.00;;;;;;5123295;28;20028;-53
2021/04/30 02:13:25;;;;;;;6.45;1.60;;;25.70;95.00;;;;;;5124289;28;20026;-56
2021/04/30 02:15:53;;;;;;;7.70;1.25;;;25.70;94.90;;;;;;5123297;28;20109;-52
2021/04/30 02:18:22;;;;;;;4.85;1.60;;;25.70;95.20;;;;;;5123561;28;20070;-55
2021/04/30 02:20:52;;;;;;;7.97;2.55;;;25.70;95.00;;;;;;5123982;28;20057;-53
2021/04/30 02:23:19;;;;;;;6.57;1.92;;;25.70;94.90;;;;;;5088980;28;20019;-56
2021/04/30 02:25:47;;;;;;;9.55;2.60;;;25.80;94.90;;;;;;5123600;28;20119;-57
2021/04/30 02:28:14;;;;;;;9.27;3.60;;;25.80;94.90;;;;;;5072438;28;20324;-52
2021/04/30 02:30:41;;;;;;;7.22;3.65;;;25.80;94.90;;;;;;5123955;28;20087;-56
2021/04/30 02:33:09;;;;;;;6.53;3.58;;;25.80;94.80;;;;;;5123963;28;20336;-54
2021/04/30 02:35:45;;;;;;;6.40;3.30;;;25.80;94.90;;;;;;5123749;28;20240;-57
2021/04/30 02:38:14;;;;;;;8.13;3.53;;;25.80;94.90;;;;;;5123856;28;20195;-57
2021/04/30 02:40:44;;;;;;;4.93;3.15;;;25.80;94.80;;;;;;5123465;28;20027;-55
2021/04/30 02:43:14;;;;;;;5.10;2.45;;;25.80;94.80;;;;;;5124062;28;20016;-55
2021/04/30 02:45:44;;;;;;;7.43;3.10;;;25.80;94.80;;;;;;5123612;28;20023;-56
2021/04/30 02:48:13;;;;;;;8.68;2.90;;;25.80;94.80;;;;;;5123928;28;20087;-55
2021/04/30 02:50:44;;;;;;;6.00;2.83;;;25.80;94.80;;;;;;5123608;28;20087;-55
2021/04/30 02:53:10;;;;;;;8.23;3.20;;;25.80;94.80;;;;;;5123414;28;20198;-52
2021/04/30 02:55:38;;;;;;;7.00;3.25;;;25.80;94.90;;;;;;5122740;28;20047;-57
2021/04/30 02:58:06;;;;;;;5.35;2.97;;;25.80;94.90;;;;;;5123618;28;20019;-59
2021/04/30 03:00:34;;;;;;;4.97;3.00;;;25.80;94.90;;;;;;5108691;28;20020;-55
2021/04/30 03:03:02;;;;;;;10.23;3.03;;;25.80;94.90;;;;;;5115101;28;20248;-53
2021/04/30 03:05:29;;;;;;;4.90;2.63;;;25.80;94.90;;;;;;5105863;28;20035;-52
2021/04/30 03:07:55;;;;;;;4.85;2.53;;;25.80;94.90;;;;;;5107160;28;20089;-56
2021/04/30 03:10:22;;;;;;;9.73;2.67;;;25.80;94.90;;;;;;5106731;28;20118;-56
2021/04/30 03:12:49;;;;;;;7.65;2.70;;;25.80;94.90;;;;;;5089128;28;20087;-55
2021/04/30 03:15:17;;;;;;;6.25;2.50;;;25.80;95.10;;;;;;5106712;28;20083;-55
2021/04/30 03:17:44;;;;;;;3.90;2.20;;;25.80;94.80;;;;;;5107392;28;20030;-54
2021/04/30 03:20:12;;;;;;;6.88;1.98;;;25.80;94.70;;;;;;5106097;28;20058;-59
2021/04/30 03:22:39;;;;;;;4.55;2.20;;;25.80;94.70;;;;;;5107261;28;20050;-55
2021/04/30 03:25:07;;;;;;;6.10;1.90;;;25.80;94.70;;;;;;5106773;28;20216;-56
2021/04/30 03:27:33;;;;;;;2.67;1.58;;;25.80;94.70;;;;;;5106169;28;20050;-55
2021/04/30 03:30:00;;;;;;;2.45;1.63;;;25.80;94.70;;;;;;5089101;28;20073;-53
2021/04/30 03:32:27;;;;;;;4.78;1.65;;;25.80;94.70;;;;;;5107135;28;20034;-52
2021/04/30 03:34:54;;;;;;;4.90;1.50;;;25.80;94.70;;;;;;5088323;28;20320;-54
2021/04/30 03:37:22;;;;;;;6.22;1.60;;;25.80;94.60;;;;;;5106969;28;20027;-58
2021/04/30 03:39:49;;;;;;;3.95;1.13;;;25.80;94.60;;;;;;5088454;28;20189;-52
2021/04/30 03:42:16;;;;;;;4.50;1.10;;;25.80;94.60;;;;;;5106868;28;20227;-58
2021/04/30 03:44:43;;;;;;;3.03;1.15;;;25.80;94.60;;;;;;5106408;28;20016;-52
2021/04/30 03:47:11;;;;;;;2.90;0.80;;;25.70;94.50;;;;;;5106784;28;20031;-53
2021/04/30 03:49:38;;;;;;;3.38;0.80;;;25.80;94.50;;;;;;5106384;28;20320;-53
2021/04/30 03:52:05;;;;;;;1.58;0.77;;;25.80;94.50;;;;;;5106605;28;20043;-56
2021/04/30 03:54:32;;;;;;;3.63;1.00;;;25.80;94.70;;;;;;5106236;28;20086;-55
2021/04/30 03:57:00;;;;;;;3.33;1.10;;;25.80;94.60;;;;;;5106528;28;20031;-55
2021/04/30 03:59:26;;;;;;;3.60;0.88;;;25.80;94.60;;;;;;5106149;28;20022;-53
2021/04/30 04:01:53;;;;;;;1.65;0.80;;;25.80;94.60;;;;;;5106170;28;20287;-56
2021/04/30 04:04:20;;;;;;;3.92;0.80;;;25.80;94.50;;;;;;5105897;28;20189;-56
2021/04/30 04:06:47;;;;;;;3.70;0.85;;;25.80;94.60;;;;;;5106299;28;20031;-55
2021/04/30 04:09:14;;;;;;;2.50;0.88;;;25.70;94.60;;;;;;5106202;28;20028;-52
2021/04/30 04:11:41;;;;;;;2.08;0.70;;;25.70;94.60;;;;;;5105295;28;20083;-53
2021/04/30 04:14:07;;;;;;;1.85;0.88;;;25.70;94.60;;;;;;5106242;28;20028;-53
2021/04/30 04:16:34;;;;;;;5.13;1.00;;;25.80;94.60;;;;;;5105856;28;20308;-54
2021/04/30 04:19:01;;;;;;;3.15;1.02;;;25.70;94.60;;;;;;5105793;28;20035;-54
2021/04/30 04:21:28;;;;;;;2.25;0.95;;;25.70;94.60;;;;;;5106288;28;20020;-52
2021/04/30 04:23:54;;;;;;;1.70;0.80;;;25.70;94.60;;;;;;5105584;28;20027;-56
2021/04/30 04:26:21;;;;;;;3.58;0.90;;;25.70;94.60;;;;;;5087740;28;20020;-53
2021/04/30 04:28:49;;;;;;;3.13;0.77;;;25.70;94.70;;;;;;5105775;28;20118;-52
2021/04/30 04:31:16;;;;;;;2.03;0.80;;;25.70;94.70;;;;;;5105532;28;20028;-52
2021/04/30 04:33:43;;;;;;;4.25;0.90;;;25.70;94.70;;;;;;5105424;28;20024;-55
2021/04/30 04:36:09;;;;;;;2.13;0.40;;;25.70;94.60;;;;;;5105419;28;20027;-56
2021/04/30 04:38:36;;;;;;;3.40;0.70;;;25.70;94.60;;;;;;5105595;28;20198;-56
2021/04/30 04:41:03;;;;;;;3.95;0.70;;;25.70;94.60;;;;;;5105408;28;20020;-52
2021/04/30 04:43:29;;;;;;;2.40;0.70;;;25.70;94.60;;;;;;5105209;28;20027;-53
2021/04/30 04:45:56;;;;;;;3.78;1.20;;;25.70;94.60;;;;;;5105088;28;20187;-57
2021/04/30 04:48:24;;;;;;;2.80;0.60;;;25.70;94.60;;;;;;5105305;28;20028;-58
2021/04/30 04:50:51;;;;;;;4.50;0.70;;;25.70;94.50;;;;;;5105028;28;20028;-55
2021/04/30 04:53:17;;;;;;;2.80;0.85;;;25.70;94.50;;;;;;5105160;28;20032;-55
2021/04/30 04:55:44;;;;;;;2.85;0.75;;;25.70;94.50;;;;;;5104995;28;20027;-55
2021/04/30 04:58:11;;;;;;;4.00;0.75;;;25.60;94.40;;;;;;5105023;28;20028;-53
2021/04/30 05:00:37;;;;;;;3.78;0.88;;;25.60;94.40;;;;;;5104922;28;20016;-53
2021/04/30 05:03:04;;;;;;;3.83;0.82;;;25.60;94.40;;;;;;5117161;28;20107;-52
2021/04/30 05:05:31;;;;;;;5.53;0.82;;;25.60;94.40;;;;;;5125617;28;20326;-55
2021/04/30 05:07:58;;;;;;;6.80;1.30;;;25.60;94.40;;;;;;5125444;28;20097;-52
2021/04/30 05:10:24;;;;;;;4.97;1.20;;;25.60;94.50;;;;;;5125212;28;20022;-58
2021/04/30 05:12:53;;;;;;;6.60;1.38;;;25.60;94.50;;;;;;5125253;28;20020;-59
2021/04/30 05:15:21;;;;;;;3.80;1.08;;;25.60;94.50;;;;;;5125162;28;20027;-53
2021/04/30 05:17:48;;;;;;;5.40;1.00;;;25.60;94.50;;;;;;5125714;28;20024;-60
2021/04/30 05:20:15;;;;;;;4.45;1.20;;;25.60;94.60;;;;;;5124985;28;20019;-54
2021/04/30 05:22:43;;;;;;;5.45;1.00;;;25.60;94.50;;;;;;5124965;28;20093;-55
2021/04/30 05:25:11;;;;;;;4.35;1.33;;;25.60;94.40;;;;;;5125060;28;20016;-53
2021/04/30 05:27:42;;;;;;;4.05;1.00;;;25.60;94.40;;;;;;5125373;28;20029;-54
2021/04/30 05:30:11;;;;;;;4.28;1.00;;;25.60;94.30;;;;;;5124949;28;20204;-58
2021/04/30 05:32:39;;;;;;;3.20;1.02;;;25.60;94.30;;;;;;5124167;28;20050;-55
2021/04/30 05:35:07;;;;;;;3.13;0.93;;;25.60;94.30;;;;;;5124928;28;20016;-53
2021/04/30 05:37:34;;;;;;;5.55;1.35;;;25.60;94.30;;;;;;5125407;28;20112;-52
2021/04/30 05:40:00;;;;;;;4.72;1.23;;;25.60;94.40;;;;;;5125030;28;20016;-54
2021/04/30 05:42:28;;;;;;;5.00;1.27;;;25.60;94.30;;;;;;5125407;28;20199;-56
2021/04/30 05:44:55;;;;;;;5.95;1.35;;;25.50;94.40;;;;;;5125044;28;20031;-53
2021/04/30 05:47:23;;;;;;;5.32;1.20;;;25.50;94.40;;;;;;5125007;28;20028;-53
2021/04/30 05:49:49;;;;;;;5.22;1.10;;;25.50;94.30;;;;;;5124569;28;20019;-53
2021/04/30 05:52:16;;;;;;;3.95;1.00;;;25.50;94.30;;;;;;5125026;28;20031;-60
2021/04/30 05:54:43;;;;;;;3.13;1.05;;;25.50;94.20;;;;;;5124580;28;20015;-55
2021/04/30 05:57:10;;;;;;;6.30;1.13;;;25.50;94.20;;;;;;5124454;28;20019;-55
2021/04/30 05:59:36;;;;;;;4.30;1.40;;;25.50;94.20;;;;;;5124601;28;20019;-54
2021/04/30 06:02:03;;;;;;;2.40;0.90;;;25.50;94.30;;;;;;5124402;28;20370;-58
2021/04/30 06:04:30;;;;;;;2.30;0.95;;;25.50;94.30;;;;;;5124398;28;20069;-59
2021/04/30 06:06:57;;;;;;;3.25;0.90;;;25.40;94.30;;;;;;5124619;28;20051;-57
2021/04/30 06:09:24;;;;;;;2.88;1.00;;;25.40;94.30;;;;;;5124316;28;20350;-55
2021/04/30 06:11:50;;;;;;;3.88;0.98;;;25.40;94.40;;;;;;5124960;28;20023;-58
2021/04/30 06:14:18;;;;;;;1.60;0.80;;;25.40;94.40;;;;;;5124324;28;20024;-53
2021/04/30 06:16:45;;;;;;;4.18;0.85;;;25.40;94.40;;;;;;5124459;28;20046;-53
2021/04/30 06:19:11;;;;;;;4.68;1.02;;;25.40;94.40;;;;;;5124334;28;20022;-54
2021/04/30 06:21:38;;;;;;;3.97;1.40;;;25.40;94.40;;;;;;5124600;28;20047;-53
2021/04/30 06:24:05;;;;;;;2.13;0.90;;;25.50;94.30;;;;;;5124386;28;20016;-55
2021/04/30 06:26:33;;;;;;;4.45;1.10;;;25.40;94.30;;;;;;5124347;28;20331;-57
2021/04/30 06:28:59;;;;;;;4.13;1.10;;;25.40;94.40;;;;;;5124822;28;20031;-60
2021/04/30 06:31:26;;;;;;;2.10;0.77;;;25.40;94.40;;;;;;5124485;28;20281;-56
2021/04/30 06:33:53;;;;;;;5.68;0.90;;;25.40;94.40;;;;;;5124876;28;20311;-53
2021/04/30 06:36:20;;;;;;;4.22;1.10;;;25.40;94.30;;;;;;5128815;28;20028;-54
2021/04/30 06:38:47;;;;;;;2.88;0.88;;;25.40;94.30;;;;;;5128583;28;20019;-57
2021/04/30 06:41:14;;;;;;;4.00;0.90;;;25.40;94.10;;;;;;5128267;28;20232;-59
2021/04/30 06:43:41;;;;;;;3.95;0.98;;;25.40;94.10;;;;;;5128494;28;20074;-53
2021/04/30 06:46:08;;;;;;;2.38;0.80;;;25.40;94.00;;;;;;5128202;28;20354;-54
2021/04/30 06:48:34;;;;;;;2.85;0.93;;;25.30;94.00;;;;;;5127819;28;20035;-53
2021/04/30 06:51:01;;;;;;;3.75;1.02;;;25.40;93.80;;;;;;5128723;28;20030;-53
2021/04/30 06:53:28;;;;;;;2.55;0.90;;;25.30;93.90;;;;;;5128540;28;20367;-60
2021/04/30 06:55:55;;;;;;;3.33;1.08;;;25.30;93.80;;;;;;5128325;28;20246;-59
2021/04/30 06:58:21;;;;;;;3.15;0.98;;;25.30;93.80;;;;;;5128047;28;20012;-53
2021/04/30 07:00:48;;;;;;;3.53;0.77;;;25.30;93.70;;;;;;5127966;28;20023;-53
2021/04/30 07:03:15;;;;;;;3.35;0.80;;;25.30;93.70;;;;;;5127717;28;20032;-55
2021/04/30 07:05:42;;;;;;;5.22;0.98;;;25.30;93.60;;;;;;5128051;28;20023;-53
2021/04/30 07:08:09;;;;;;;2.22;0.90;;;25.30;93.60;;;;;;5128134;28;20032;-54
2021/04/30 07:10:35;;;;;;;2.70;0.90;;;25.20;93.60;;;;;;5127782;28;20203;-59
2021/04/30 07:13:12;;;;;;;3.08;0.82;;;25.20;93.60;;;;;;5128092;28;20316;-57
2021/04/30 07:15:39;;;;;;;2.65;0.93;;;25.20;93.50;;;;;;5127612;28;20027;-56
2021/04/30 07:18:06;;;;;;;3.40;0.90;;;25.20;93.60;;;;;;5127379;28;20069;-52
2021/04/30 07:20:36;;;;;;;2.20;1.00;;;25.20;93.60;;;;;;5127603;28;20057;-55
2021/04/30 07:23:04;;;;;;;4.60;0.80;;;25.20;93.50;;;;;;5127651;28;20020;-53
2021/04/30 07:25:31;;;;;;;2.55;0.80;;;25.20;93.60;;;;;;5127490;28;20057;-54
2021/04/30 07:27:58;;;;;;;1.23;0.63;;;25.20;93.80;;;;;;5127424;28;20254;-54
2021/04/30 07:30:25;;;;;;;3.65;0.95;;;25.10;93.50;;;;;;5127616;28;20015;-57
2021/04/30 07:32:52;;;;;;;1.55;0.75;;;25.10;93.60;;;;;;5127068;28;20272;-53
2021/04/30 07:35:19;;;;;;;1.48;0.60;;;25.10;93.60;;;;;;5127453;28;20019;-58
2021/04/30 07:37:46;;;;;;;2.42;0.70;;;25.10;93.50;;;;;;5127801;28;20031;-53
2021/04/30 07:40:13;;;;;;;3.00;0.68;;;25.10;93.60;;;;;;5127389;28;20030;-55
2021/04/30 07:42:39;;;;;;;1.55;0.50;;;25.10;93.60;;;;;;5128107;28;20079;-57
2021/04/30 07:45:07;;;;;;;1.27;0.50;;;25.10;93.60;;;;;;5126276;28;20027;-54
2021/04/30 07:47:33;;;;;;;0.60;0.40;;;25.10;93.60;;;;;;5127088;28;20066;-60
2021/04/30 07:50:00;;;;;;;1.02;0.40;;;25.10;93.50;;;;;;5126888;28;20022;-57
2021/04/30 07:52:27;;;;;;;1.75;0.50;;;25.10;93.50;;;;;;5127566;28;20311;-56
2021/04/30 07:54:54;;;;;;;1.70;0.22;;;25.10;93.50;;;;;;5126832;28;20042;-57
2021/04/30 07:57:20;;;;;;;2.03;0.40;;;25.10;93.50;;;;;;5127535;28;20042;-53
2021/04/30 07:59:47;;;;;;;0.63;0.22;;;25.10;93.50;;;;;;5127438;28;20063;-56
2021/04/30 08:02:13;;;;;;;1.48;0.30;;;25.10;93.50;;;;;;5126960;28;20042;-52
2021/04/30 08:04:40;;;;;;;0.73;0.32;;;25.10;93.50;;;;;;5127041;28;20195;-53
2021/04/30 08:07:07;;;;;;;1.20;0.30;;;25.10;93.60;;;;;;5126922;28;20032;-60
2021/04/30 08:09:33;;;;;;;1.10;0.30;;;25.10;93.60;;;;;;5126558;28;20027;-57
2021/04/30 08:12:00;;;;;;;0.75;0.25;;;25.10;93.60;;;;;;5126933;28;20266;-53
2021/04/30 08:14:27;;;;;;;2.15;0.40;;;25.10;93.60;;;;;;5126748;28;20029;-58
2021/04/30 08:16:53;;;;;;;1.13;0.40;;;25.10;93.60;;;;;;5127203;28;20051;-57
2021/04/30 08:19:20;;;;;;;2.33;0.30;;;25.10;93.50;;;;;;5126720;28;20015;-52
2021/04/30 08:21:47;;;;;;;1.48;0.30;;;25.10;93.60;;;;;;5126657;28;20073;-52
2021/04/30 08:24:13;;;;;;;1.27;0.30;;;25.10;93.60;;;;;;5126700;28;20268;-53
2021/04/30 08:26:40;;;;;;;0.43;0.20;;;25.10;93.60;;;;;;5126224;28;20178;-54
2021/04/30 08:29:07;;;;;;;1.25;0.45;;;25.00;93.60;;;;;;5126080;28;20024;-54
2021/04/30 08:31:34;;;;;;;1.70;0.32;;;25.00;93.60;;;;;;5126307;28;20027;-53
2021/04/30 08:34:00;;;;;;;3.03;0.60;;;25.00;93.70;;;;;;5126604;28;20023;-53
2021/04/30 08:36:27;;;;;;;1.38;0.60;;;25.00;93.70;;;;;;5126149;28;20095;-53
2021/04/30 08:38:54;;;;;;;2.22;0.50;;;25.00;93.80;;;;;;5126172;28;20008;-54
2021/04/30 08:41:25;;;;;;;1.25;0.50;;;25.00;93.80;;;;;;5126399;28;20047;-53
2021/04/30 08:43:53;;;;;;;1.48;0.40;;;25.00;93.80;;;;;;5126788;28;20060;-55
2021/04/30 08:46:20;;;;;;;1.48;0.50;;;25.00;93.80;;;;;;5125906;28;20034;-54
2021/04/30 08:48:46;;;;;;;1.45;0.40;;;25.00;93.90;;;;;;5125533;28;20185;-54
2021/04/30 08:51:13;;;;;;;1.13;0.40;;;25.00;93.80;;;;;;5126035;28;20134;-56
2021/04/30 08:53:41;;;;;;;2.08;0.38;;;25.00;93.90;;;;;;5125711;28;20016;-53
2021/04/30 08:56:08;;;;;;;1.27;0.60;;;25.00;93.90;;;;;;5125678;28;20247;-54
2021/04/30 08:58:37;;;;;;;2.78;0.40;;;25.00;93.90;;;;;;5125610;28;20034;-53
2021/04/30 09:01:05;;;;;;;2.10;0.40;;;25.00;93.90;;;;;;5125997;28;20069;-57
2021/04/30 09:03:35;;;;;;;1.10;0.20;;;24.90;93.90;;;;;;5125661;28;20328;-57
2021/04/30 09:06:02;;;;;;;1.20;0.30;;;25.00;93.80;;;;;;5125965;28;20237;-53
2021/04/30 09:08:29;;;;;;;0.98;0.40;;;25.00;93.80;;;;;;5126251;28;20084;-55
2021/04/30 09:10:56;;;;;;;1.42;0.40;;;25.00;93.90;;;;;;5125798;28;20047;-54
2021/04/30 09:13:24;;;;;;;0.55;0.32;;;24.90;93.80;;;;;;5125846;28;20024;-54
2021/04/30 09:16:06;;;;;;;0.57;0.40;;;25.00;93.90;;;;;;5125246;28;20045;-56
2021/04/30 09:18:33;;;;;;;4.22;0.50;;;24.90;93.90;;;;;;5125555;28;20019;-57
2021/04/30 09:21:13;;;;;;;3.22;0.57;;;24.90;93.90;;;;;;5125319;28;20016;-56
2021/04/30 09:23:46;;;;;;;2.15;0.50;;;24.90;93.90;;;;;;5125788;28;20110;-62
2021/04/30 09:26:29;;;;;;;0.98;0.25;;;24.90;93.90;;;;;;5125072;28;20023;-62
2021/04/30 09:29:05;;;;;;;0.80;0.40;;;24.90;94.00;;;;;;5125108;28;20132;-58
2021/04/30 09:31:34;;;;;;;1.20;0.35;;;24.90;94.00;;;;;;5125489;28;20344;-59
2021/04/30 09:34:25;;;;;;;2.17;0.30;;;24.90;94.00;;;;;;5124859;28;20034;-55
2021/04/30 09:36:55;;;;;;;0.93;0.40;;;24.90;94.00;;;;;;5125503;28;20019;-54
2021/04/30 09:39:21;;;;;;;0.73;0.30;;;24.90;93.90;;;;;;5125531;28;20024;-54
2021/04/30 09:42:10;;;;;;;2.75;0.40;;;24.90;94.00;;;;;;5107033;28;20217;-54
2021/04/30 09:44:44;;;;;;;1.23;0.40;;;24.90;94.00;;;;;;5124800;28;20071;-54
2021/04/30 09:47:27;;;;;;;0.85;0.30;;;24.90;94.00;;;;;;5125122;28;20039;-55
2021/04/30 09:49:54;;;;;;;;;;;24.90;94.00;;;;;;5125204;28;20015;-53
2021/04/30 09:52:22;;;;;;;2.05;0.30;;;24.90;94.00;;;;;;5125021;28;20190;-52
2021/04/30 09:54:49;;;;;;;0.40;0.20;;;24.90;94.00;;;;;;5124596;28;20031;-59
2021/04/30 09:57:27;;;;;;;1.85;0.43;;;24.90;94.00;;;;;;5125347;28;20341;-53
2021/04/30 10:00:06;;;;;;;1.02;0.30;;;24.90;94.00;;;;;;5124928;28;20027;-53
2021/04/30 10:02:35;;;;;;;1.27;0.60;;;24.90;94.00;;;;;;5124891;28;20104;-54
2021/04/30 10:05:22;;;;;;;2.33;0.40;;;24.90;94.00;;;;;;5124562;28;20316;-59
2021/04/30 10:07:49;;;;;;;2.30;0.40;;;24.90;94.00;;;;;;5124884;28;20027;-50
2021/04/30 10:10:17;;;;;;;1.33;0.30;;;24.90;94.00;;;;;;5123796;28;20339;-59
2021/04/30 10:12:45;;;;;;;1.95;0.50;;;24.90;94.00;;;;;;5125022;28;20020;-56
2021/04/30 10:15:20;;;;;;;3.70;0.80;;;24.90;94.00;;;;;;5124600;28;20048;-57
2021/04/30 10:17:48;;;;;;;3.40;0.65;;;24.90;93.90;;;;;;5125126;28;20095;-61
2021/04/30 10:20:16;;;;;;;2.47;0.80;;;24.90;94.00;;;;;;5124517;28;20046;-57
2021/04/30 10:22:44;;;;;;;0.98;0.40;;;24.90;94.00;;;;;;5124930;28;20019;-57
2021/04/30 10:25:17;;;;;;;1.42;0.40;;;24.90;94.00;;;;;;5124445;28;20233;-59
2021/04/30 10:28:03;;;;;;;1.50;0.60;;;24.90;94.00;;;;;;5124766;28;20024;-53
2021/04/30 10:31:02;;;;;;;1.70;1.02;;;24.90;94.00;;;;;;5124438;28;20023;-57
2021/04/30 10:33:51;;;;;;;4.85;1.27;;;24.90;94.10;;;;;;5124282;28;20339;-57
2021/04/30 10:36:29;;;;;;;1.42;1.13;;;24.90;94.10;;;;;;5124643;28;20032;-55
2021/04/30 10:38:59;;;;;;;0.85;0.63;;;24.90;94.10;;;;;;5124841;28;20261;-57
2021/04/30 10:41:34;;;;;;;1.60;0.82;;;24.90;94.10;;;;;;5124774;28;20023;-54
2021/04/30 10:44:23;;;;;;;1.15;0.70;;;24.90;94.10;;;;;;5124597;28;20252;-61
2021/04/30 10:46:54;;;;;;;1.10;0.50;;;24.90;94.10;;;;;;5124644;28;20091;-60
2021/04/30 10:49:22;;;;;;;2.35;0.60;;;24.90;94.10;;;;;;5124371;28;20020;-57
2021/04/30 10:52:07;;;;;;;2.38;0.68;;;24.90;94.00;;;;;;5124169;28;20208;-54
2021/04/30 10:54:37;;;;;;;0.68;0.40;;;24.90;94.10;;;;;;5124148;28;20087;-63
2021/04/30 10:57:12;;;;;;;2.25;0.82;;;24.90;94.10;;;;;;5124170;28;20259;-53
2021/04/30 10:59:39;;;;;;;2.60;0.45;;;24.90;94.20;;;;;;5124136;28;20204;-54
2021/04/30 11:02:31;;;;;;;1.75;0.60;;;24.90;94.20;;;;;;5124010;28;20048;-54
2021/04/30 11:05:04;;;;;;;3.73;0.70;;;24.90;94.20;;;;;;5124167;28;20188;-53
2021/04/30 11:07:48;;;;;;;6.28;0.73;;;24.90;94.20;;;;;;5124273;28;20273;-56
2021/04/30 11:10:27;;;;;;;3.42;0.82;;;24.90;94.30;;;;;;5123893;28;20019;-61
2021/04/30 11:12:54;;;;;;;2.75;0.45;;;24.90;94.30;;;;;;5123729;28;20035;-59
2021/04/30 11:15:21;;;;;;;6.32;0.50;;;24.90;94.30;;;;;;5124134;28;20308;-54
2021/04/30 11:17:54;;;;;;;1.58;0.40;;;24.90;94.40;;;;;;5124343;28;20024;-54
2021/04/30 11:20:23;;;;;;;2.35;0.60;;;24.90;94.40;;;;;;5124208;28;20020;-60
2021/04/30 11:23:12;;;;;;;1.42;0.68;;;24.90;94.40;;;;;;5127958;28;20216;-56
2021/04/30 11:25:57;;;;;;;0.52;0.32;;;24.90;94.40;;;;;;5078829;28;20046;-54
2021/04/30 11:28:44;;;;;;;1.08;0.40;;;24.90;94.40;;;;;;5127477;28;20023;-57
2021/04/30 11:31:32;;;;;;;2.47;0.70;;;24.90;94.40;;;;;;5110773;28;20095;-60
2021/04/30 11:34:15;;;;;;;2.92;0.60;;;24.90;94.40;;;;;;5127511;28;20019;-54
2021/04/30 11:36:50;;;;;;;1.83;0.45;;;24.90;94.40;;;;;;5127565;28;20038;-55
2021/04/30 11:39:26;;;;;;;0.88;0.40;;;24.90;94.40;;;;;;5127410;28;20023;-57
2021/04/30 11:41:58;;;;;;;1.02;0.50;;;24.90;94.40;;;;;;5127479;28;20019;-61
2021/04/30 11:44:25;;;;;;;4.80;1.95;;;24.90;94.40;;;;;;5127046;28;20035;-55
2021/04/30 11:47:01;;;;;;;6.10;2.90;;;24.90;94.40;;;;;;5127392;28;20038;-54
2021/04/30 11:49:28;;;;;;;8.60;2.78;;;24.90;94.40;;;;;;5126888;28;20312;-56
2021/04/30 11:51:54;;;;;;;3.10;2.08;;;24.90;94.40;;;;;;5127036;28;20023;-57
2021/04/30 11:54:28;;;;;;;4.63;1.48;;;24.90;94.40;;;;;;5126944;28;20091;-54
2021/04/30 11:57:13;;;;;;;2.78;1.27;;;24.90;94.40;;;;;;5127167;28;20027;-55
2021/04/30 11:59:42;;;;;;;2.17;1.20;;;24.90;94.40;;;;;;5126581;28;20016;-55
2021/04/30 12:02:11;;;;;;;1.98;1.00;;;24.90;94.40;;;;;;5126715;28;20067;-57
2021/04/30 12:04:50;;;;;;;1.40;0.75;;;24.90;94.40;;;;;;5126754;28;20035;-52
2021/04/30 12:07:18;;;;;;;2.08;0.93;;;24.90;94.50;;;;;;5126874;28;20024;-62
2021/04/30 12:09:46;;;;;;;2.28;0.85;;;24.90;94.50;;;;;;5126191;28;20016;-60
2021/04/30 12:12:23;;;;;;;3.92;1.15;;;24.90;94.60;;;;;;5126742;28;20051;-53
2021/04/30 12:15:00;;;;;;;1.70;0.55;;;24.90;94.60;;;;;;5126498;28;20373;-52
2021/04/30 12:17:33;;;;;;;0.73;0.60;;;24.90;94.60;;;;;;5127263;28;20035;-59
2021/04/30 12:20:09;;;;;;;5.57;1.00;;;25.00;94.60;;;;;;5126107;28;20303;-55
2021/04/30 12:22:48;;;;;;;4.15;1.25;;;25.00;94.70;;;;;;5126563;28;20020;-52
2021/04/30 12:25:29;;;;;;;2.60;0.80;;;25.00;94.70;;;;;;5126296;28;20024;-49
2021/04/30 12:28:15;;;;;;;3.53;0.90;;;25.00;94.80;;;;;;5125932;28;20027;-53
2021/04/30 12:30:42;;;;;;;2.63;0.60;;;25.10;94.80;;;;;;5109668;28;20082;-54
2021/04/30 12:33:19;;;;;;;1.33;0.90;;;25.10;94.80;;;;;;5125990;28;20042;-54
2021/04/30 12:35:46;;;;;;;3.67;1.10;;;25.10;94.90;;;;;;5125880;28;20043;-55
2021/04/30 12:38:13;;;;;;;2.10;0.60;;;25.10;95.10;;;;;;5125713;28;20026;-61
2021/04/30 12:40:39;;;;;;;1.65;0.60;;;25.10;95.10;;;;;;5125695;28;20033;-57
2021/04/30 12:43:06;;;;;;;2.35;0.63;;;25.10;95.20;;;;;;5125754;28;20019;-55
2021/04/30 12:45:33;;;;;;;2.38;0.98;;;25.20;95.20;;;;;;5125588;28;20023;-53
2021/04/30 12:48:00;;;;;;;2.35;0.60;;;25.20;95.20;;;;;;5125823;28;20020;-58
2021/04/30 12:50:27;;;;;;;2.05;0.70;;;25.20;95.00;;;;;;5125397;28;20026;-60
2021/04/30 12:52:56;;;;;;;0.50;0.50;;;25.30;95.20;;;;;;5125286;28;20016;-57
2021/04/30 12:55:28;;;;;;;4.32;0.70;;;25.30;95.20;;;;;;5125487;28;20326;-58
2021/04/30 12:58:13;;;;;;;2.80;0.68;;;25.30;95.20;;;;;;5125501;28;20361;-60
2021/04/30 13:01:01;;;;;;;2.50;0.50;;;25.40;95.30;;;;;;5125635;28;20016;-60